Time;durP1;ratioP1;P1;durP2;ratioP2;P2;SDS_P1;SDS_P2;PMS_P1;PMS_P2;Temp;Humidity;BMP_temperature;BMP_pressure;BME280_temperature;BME280_humidity;BME280_pressure;Samples;Min_cycle;Max_cycle;Signal;HPM_P1;HPM_P2
2022/11/02 00:00:13;;;;;;;;;;;;;;;21.63;53.64;100825.03;7281743;19;152125;-58
2022/11/02 00:02:40;;;;;;;;;;;;;;;21.62;53.23;100834.63;7284661;19;152616;-57
2022/11/02 00:05:10;;;;;;;;;;;;;;;21.62;53.61;100843.06;7281824;19;152403;-58
2022/11/02 00:07:37;;;;;;;;;;;;;;;21.61;53.55;100844.22;7279189;19;153418;-57
2022/11/02 00:10:04;;;;;;;;;;;;;;;21.59;53.44;100860.56;7280455;19;153263;-58
2022/11/02 00:12:31;;;;;;;;;;;;;;;21.57;53.67;100859.25;7289515;19;153580;-58
2022/11/02 00:14:58;;;;;;;;;;;;;;;21.56;53.27;100863.19;7278848;19;152469;-57
2022/11/02 00:17:25;;;;;;;;;;;;;;;21.54;53.29;100877.56;7282684;19;153782;-57
2022/11/02 00:19:52;;;;;;;;;;;;;;;21.52;53.38;100877.06;7282280;19;152879;-57
2022/11/02 00:22:19;;;;;;;;;;;;;;;21.50;53.36;100893.41;7279377;19;153516;-57
2022/11/02 00:24:46;;;;;;;;;;;;;;;21.49;53.74;100896.53;7282547;19;154033;-57
2022/11/02 00:27:13;;;;;;;;;;;;;;;21.48;53.53;100906.97;7281641;19;152217;-57
2022/11/02 00:29:40;;;;;;;;;;;;;;;21.46;53.39;100916.84;7280004;19;153358;-58
2022/11/02 00:32:07;;;;;;;;;;;;;;;21.46;53.40;100914.88;7281749;19;154459;-57
2022/11/02 00:34:34;;;;;;;;;;;;;;;21.42;53.30;100913.00;7289392;19;152590;-56
2022/11/02 00:37:01;;;;;;;;;;;;;;;21.42;53.61;100932.69;7283171;19;152538;-56
2022/11/02 00:39:29;;;;;;;;;;;;;;;21.37;53.38;100922.38;7284194;19;152518;-57
2022/11/02 00:41:56;;;;;;;;;;;;;;;21.40;53.75;100937.75;7278133;19;153124;-58
2022/11/02 00:44:22;;;;;;;;;;;;;;;21.37;53.38;100947.66;7280562;19;154264;-58
2022/11/02 00:46:49;;;;;;;;;;;;;;;21.38;53.08;100957.78;7280312;19;151814;-57
2022/11/02 00:49:16;;;;;;;;;;;;;;;21.35;53.13;100955.56;7282433;19;153340;-56
2022/11/02 00:51:43;;;;;;;;;;;;;;;21.35;53.36;100964.00;7281347;19;152825;-57
2022/11/02 00:54:10;;;;;;;;;;;;;;;21.36;53.55;100971.28;7290620;19;152460;-57
2022/11/02 00:56:38;;;;;;;;;;;;;;;21.35;53.35;100966.81;7277786;19;153325;-57
2022/11/02 00:59:05;;;;;;;;;;;;;;;21.35;53.07;100980.06;7278951;19;152347;-57
2022/11/02 01:01:32;;;;;;;;;;;;;;;21.33;53.06;100982.34;7281878;19;152254;-57
2022/11/02 01:03:59;;;;;;;;;;;;;;;21.29;52.92;100997.03;7281464;19;154958;-57
2022/11/02 01:06:26;;;;;;;;;;;;;;;21.28;53.08;101003.78;7281451;19;152052;-57
2022/11/02 01:08:53;;;;;;;;;;;;;;;21.27;52.87;101006.91;7283607;19;153195;-56
2022/11/02 01:11:21;;;;;;;;;;;;;;;21.26;53.05;101019.28;7279156;19;154125;-57
2022/11/02 01:13:51;;;;;;;;;;;;;;;21.23;53.35;101029.19;7278859;19;152103;-56
2022/11/02 01:16:18;;;;;;;;;;;;;;;21.23;53.05;101020.75;7287691;19;153913;-57
2022/11/02 01:18:45;;;;;;;;;;;;;;;21.21;52.84;101047.50;7281973;19;152133;-57
2022/11/02 01:21:12;;;;;;;;;;;;;;;21.19;53.06;101047.81;7280090;19;153952;-58
2022/11/02 01:23:39;;;;;;;;;;;;;;;21.17;52.83;101054.88;7279726;19;154863;-57
2022/11/02 01:26:06;;;;;;;;;;;;;;;21.16;52.64;101050.41;7282111;19;152694;-57
2022/11/02 01:28:34;;;;;;;;;;;;;;;21.13;53.05;101067.88;7279022;19;152542;-57
2022/11/02 01:31:01;;;;;;;;;;;;;;;21.13;53.25;101065.06;7279013;19;153276;-57
2022/11/02 01:33:28;;;;;;;;;;;;;;;21.09;52.67;101063.97;7281233;19;152053;-58
2022/11/02 01:35:55;;;;;;;;;;;;;;;21.07;52.68;101057.84;7283700;19;152035;-58
2022/11/02 01:38:22;;;;;;;;;;;;;;;21.06;52.86;101076.69;7286439;19;154128;-57
2022/11/02 01:40:49;;;;;;;;;;;;;;;21.05;52.96;101069.41;7281878;19;153609;-58
2022/11/02 01:43:19;;;;;;;;;;;;;;;21.04;52.90;101086.53;7278481;19;152598;-59
2022/11/02 01:45:47;;;;;;;;;;;;;;;21.01;52.63;101102.06;7282319;19;151995;-57
2022/11/02 01:48:14;;;;;;;;;;;;;;;21.00;52.80;101097.56;7282106;19;153810;-57
2022/11/02 01:50:42;;;;;;;;;;;;;;;20.99;53.23;101106.31;7278704;19;154134;-57
2022/11/02 01:53:09;;;;;;;;;;;;;;;20.98;52.97;101113.09;7280691;19;152196;-57
2022/11/02 01:55:38;;;;;;;;;;;;;;;20.95;53.14;101122.94;7281442;19;153417;-58
2022/11/02 01:58:08;;;;;;;;;;;;;;;20.94;53.14;101126.88;7278277;19;152186;-57
2022/11/02 02:00:37;;;;;;;;;;;;;;;20.91;53.13;101127.50;7288479;19;151818;-57
2022/11/02 02:03:08;;;;;;;;;;;;;;;20.91;53.55;101135.09;7277807;19;154695;-58
2022/11/02 02:05:40;;;;;;;;;;;;;;;20.89;53.93;101148.63;7280927;19;152206;-57
2022/11/02 02:08:08;;;;;;;;;;;;;;;20.89;53.38;101146.66;7281585;19;153326;-57
2022/11/02 02:10:35;;;;;;;;;;;;;;;20.87;53.70;101148.94;7278579;19;154625;-58
2022/11/02 02:13:04;;;;;;;;;;;;;;;20.86;53.89;101145.28;7276926;19;152815;-57
2022/11/02 02:15:39;;;;;;;;;;;;;;;20.84;54.13;101149.53;7276803;19;152821;-57
2022/11/02 02:18:09;;;;;;;;;;;;;;;20.82;53.92;101154.63;7279801;19;152571;-57
2022/11/02 02:20:44;;;;;;;;;;;;;;;20.81;54.01;101162.22;7278968;19;152009;-57
2022/11/02 02:23:20;;;;;;;;;;;;;;;20.81;54.12;101165.00;7284309;19;152821;-58
2022/11/02 02:25:47;;;;;;;;;;;;;;;20.79;54.05;101163.66;7280506;19;152047;-57
2022/11/02 02:28:18;;;;;;;;;;;;;;;20.78;54.09;101168.44;7277065;19;153036;-57
2022/11/02 02:30:54;;;;;;;;;;;;;;;20.76;54.01;101165.09;7279107;19;154461;-57
2022/11/02 02:33:30;;;;;;;;;;;;;;;20.74;53.96;101187.03;7280687;19;152210;-56
2022/11/02 02:36:01;;;;;;;;;;;;;;;20.75;53.81;101179.47;7286656;19;152239;-57
2022/11/02 02:38:28;;;;;;;;;;;;;;;20.73;54.31;101182.56;7283654;19;154167;-58
2022/11/02 02:41:04;;;;;;;;;;;;;;;20.74;53.92;101177.78;7286134;19;151937;-57
2022/11/02 02:43:35;;;;;;;;;;;;;;;20.72;54.21;101196.91;7279840;19;151996;-57
2022/11/02 02:46:09;;;;;;;;;;;;;;;20.68;54.39;101177.03;7293252;19;151638;-57
2022/11/02 02:48:38;;;;;;;;;;;;;;;20.66;54.18;101193.34;7283496;19;152671;-57
2022/11/02 02:51:10;;;;;;;;;;;;;;;20.66;54.17;101195.31;7285712;19;154305;-56
2022/11/02 02:53:40;;;;;;;;;;;;;;;20.64;54.45;101203.19;7284523;19;152108;-57
2022/11/02 02:56:09;;;;;;;;;;;;;;;20.64;54.60;101206.00;7255266;19;155350;-57
2022/11/02 02:58:39;;;;;;;;;;;;;;;20.61;54.24;101204.66;7253722;19;153499;-57
2022/11/02 03:01:09;;;;;;;;;;;;;;;20.62;54.36;101225.97;7257737;19;153191;-57
2022/11/02 03:03:38;;;;;;;;;;;;;;;20.60;54.37;101214.19;7254348;19;155509;-57
2022/11/02 03:06:14;;;;;;;;;;;;;;;20.60;54.54;101217.00;7265117;19;154326;-57
2022/11/02 03:08:42;;;;;;;;;;;;;;;20.58;54.13;101229.69;7259532;19;153968;-57
2022/11/02 03:11:14;;;;;;;;;;;;;;;20.57;54.05;101228.03;7257973;19;155473;-57
2022/11/02 03:13:54;;;;;;;;;;;;;;;20.56;54.17;101232.78;7250372;19;153470;-57
2022/11/02 03:16:21;;;;;;;;;;;;;;;20.57;54.52;101242.06;7257485;19;152747;-57
2022/11/02 03:18:58;;;;;;;;;;;;;;;20.54;54.35;101237.88;7256599;19;153395;-57
2022/11/02 03:21:29;;;;;;;;;;;;;;;20.54;54.14;101245.44;7258781;19;155156;-57
2022/11/02 03:24:01;;;;;;;;;;;;;;;20.52;54.29;101245.75;7254063;19;153550;-57
2022/11/02 03:26:38;;;;;;;;;;;;;;;20.51;54.21;101244.09;7256945;19;154455;-57
2022/11/02 03:29:08;;;;;;;;;;;;;;;20.50;54.23;101248.03;7266917;19;153756;-57
2022/11/02 03:31:45;;;;;;;;;;;;;;;20.48;54.14;101255.94;7253907;19;153940;-58
2022/11/02 03:34:16;;;;;;;;;;;;;;;20.48;54.39;101261.53;7256902;19;154252;-58
2022/11/02 03:36:48;;;;;;;;;;;;;;;20.46;54.26;101255.38;7259958;19;153800;-56
2022/11/02 03:39:18;;;;;;;;;;;;;;;20.45;54.68;101262.13;7258155;19;154234;-58
2022/11/02 03:41:46;;;;;;;;;;;;;;;20.44;54.36;101266.09;7255537;19;154832;-57
2022/11/02 03:44:16;;;;;;;;;;;;;;;20.41;54.79;101266.66;7256428;19;152375;-56
2022/11/02 03:46:43;;;;;;;;;;;;;;;20.40;54.38;101273.41;7256655;19;153191;-58
2022/11/02 03:49:12;;;;;;;;;;;;;;;20.39;54.55;101281.03;7254204;19;154419;-58
2022/11/02 03:51:41;;;;;;;;;;;;;;;20.36;54.64;101278.78;7260424;19;153792;-57
2022/11/02 03:54:16;;;;;;;;;;;;;;;20.36;54.60;101283.56;7258935;19;153785;-58
2022/11/02 03:56:45;;;;;;;;;;;;;;;20.34;54.62;101291.47;7257472;19;154554;-59
2022/11/02 03:59:12;;;;;;;;;;;;;;;20.32;54.91;101297.38;7254359;19;153592;-59
2022/11/02 04:01:41;;;;;;;;;;;;;;;20.32;54.87;101313.38;7256241;19;154326;-59
2022/11/02 04:04:08;;;;;;;;;;;;;;;20.30;54.52;101310.88;7257938;19;152696;-58
2022/11/02 04:06:35;;;;;;;;;;;;;;;20.30;54.74;101322.09;7252043;19;153346;-59
2022/11/02 04:09:03;;;;;;;;;;;;;;;20.29;54.49;101319.56;7258674;19;153958;-58
2022/11/02 04:16:43;;;;;;;;;;;;;;;20.23;54.98;101335.59;7255436;19;154367;-58
2022/11/02 04:26:58;;;;;;;;;;;;;;;20.18;55.02;101346.88;7253349;19;154738;-58
2022/11/02 04:29:25;;;;;;;;;;;;;;;20.18;55.31;101357.25;7256019;19;152049;-58
2022/11/02 04:31:52;;;;;;;;;;;;;;;20.17;55.43;101366.81;7256053;19;153535;-58
2022/11/02 04:34:19;;;;;;;;;;;;;;;20.16;55.21;101367.94;7256836;19;154866;-59
2022/11/02 04:36:46;;;;;;;;;;;;;;;20.12;55.24;101362.09;7261636;19;152603;-58
2022/11/02 04:39:13;;;;;;;;;;;;;;;20.11;55.46;101371.66;7257176;19;154060;-58
2022/11/02 04:41:41;;;;;;;;;;;;;;;20.10;55.57;101375.56;7255426;19;152647;-58
2022/11/02 04:44:10;;;;;;;;;;;;;;;20.10;55.56;101366.31;7250662;19;153497;-58
2022/11/02 04:46:37;;;;;;;;;;;;;;;20.09;55.63;101373.91;7255767;19;154640;-57
2022/11/02 04:49:04;;;;;;;;;;;;;;;20.08;55.53;101377.81;7256568;19;153302;-57
2022/11/02 04:51:31;;;;;;;;;;;;;;;20.07;55.74;101378.97;7255754;19;154228;-58
2022/11/02 04:53:58;;;;;;;;;;;;;;;20.07;55.50;101380.94;7254473;19;153780;-57
2022/11/02 04:56:25;;;;;;;;;;;;;;;20.05;55.25;101378.44;7258065;19;153547;-58
2022/11/02 04:58:54;;;;;;;;;;;;;;;20.04;55.54;101376.75;7250631;19;153367;-59
2022/11/02 05:01:23;;;;;;;;;;;;;;;20.02;55.73;101381.00;7255086;19;154466;-58
2022/11/02 05:03:51;;;;;;;;;;;;;;;20.03;55.77;101380.72;7248383;19;155446;-58
2022/11/02 05:06:18;;;;;;;;;;;;;;;20.02;55.55;101381.84;7252271;19;154061;-58
2022/11/02 05:08:45;;;;;;;;;;;;;;;20.01;55.63;101393.34;7255053;19;153203;-58
2022/11/02 05:11:13;;;;;;;;;;;;;;;20.01;55.77;101398.94;7253077;19;154589;-58
2022/11/02 05:13:40;;;;;;;;;;;;;;;20.01;55.58;101398.94;7250643;19;154465;-58
2022/11/02 05:16:09;;;;;;;;;;;;;;;19.99;56.07;101396.41;7252636;19;153441;-58
2022/11/02 05:18:36;;;;;;;;;;;;;;;19.97;55.98;101416.38;7260585;19;153954;-58
2022/11/02 05:21:02;;;;;;;;;;;;;;;19.95;55.78;101401.78;7255302;19;152440;-58
2022/11/02 05:23:29;;;;;;;;;;;;;;;19.95;55.97;101403.75;7251965;19;153564;-58
2022/11/02 05:25:57;;;;;;;;;;;;;;;19.94;55.98;101405.72;7253353;19;153918;-59
2022/11/02 05:28:25;;;;;;;;;;;;;;;19.94;55.76;101410.50;7248988;19;153898;-59
2022/11/02 05:30:52;;;;;;;;;;;;;;;19.91;56.07;101403.50;7255575;19;153925;-58
2022/11/02 05:33:19;;;;;;;;;;;;;;;19.90;55.99;101407.44;7253219;19;153200;-58
2022/11/02 05:35:46;;;;;;;;;;;;;;;19.89;56.27;101405.78;7256507;19;152564;-57
2022/11/02 05:38:13;;;;;;;;;;;;;;;19.89;56.25;101407.75;7255945;19;154255;-58
2022/11/02 05:40:40;;;;;;;;;;;;;;;19.88;56.24;101409.72;7260214;19;153954;-58
2022/11/02 05:43:08;;;;;;;;;;;;;;;19.89;55.79;101410.56;7250530;19;154048;-58
2022/11/02 05:45:35;;;;;;;;;;;;;;;19.88;55.96;101398.50;7249925;19;153698;-58
2022/11/02 05:48:05;;;;;;;;;;;;;;;19.89;55.93;101408.59;7253587;19;153805;-58
2022/11/02 05:50:32;;;;;;;;;;;;;;;19.92;56.12;101405.19;7251563;19;154378;-58
2022/11/02 05:52:59;;;;;;;;;;;;;;;19.96;56.14;101397.84;7255928;19;154396;-58
2022/11/02 05:55:26;;;;;;;;;;;;;;;19.99;56.58;101402.88;7252195;19;152756;-58
2022/11/02 05:57:54;;;;;;;;;;;;;;;20.02;56.64;101409.03;7254447;19;154058;-58
2022/11/02 06:00:22;;;;;;;;;;;;;;;20.05;57.23;101403.66;7248607;19;154440;-58
2022/11/02 06:02:54;;;;;;;;;;;;;;;20.08;57.38;101408.69;7262550;19;154367;-58
2022/11/02 06:05:21;;;;;;;;;;;;;;;20.13;57.32;101413.41;7253250;19;153622;-58
2022/11/02 06:07:48;;;;;;;;;;;;;;;20.16;57.87;101410.88;7253136;19;153442;-58
2022/11/02 06:10:14;;;;;;;;;;;;;;;20.21;58.12;101415.59;7260386;19;154536;-58
2022/11/02 06:12:41;;;;;;;;;;;;;;;20.25;58.14;101411.91;7258850;19;153843;-56
2022/11/02 06:15:09;;;;;;;;;;;;;;;20.29;58.33;101410.19;7259286;19;153629;-57
2022/11/02 06:17:36;;;;;;;;;;;;;;;20.34;58.31;101410.16;7260970;19;153531;-57
2022/11/02 06:20:03;;;;;;;;;;;;;;;20.39;58.45;101406.47;7260004;19;155172;-58
2022/11/02 06:22:30;;;;;;;;;;;;;;;20.44;58.62;101406.44;7259446;19;153322;-57
2022/11/02 06:24:57;;;;;;;;;;;;;;;20.49;58.06;101408.34;7262432;19;154490;-57
2022/11/02 06:27:23;;;;;;;;;;;;;;;20.53;58.06;101401.84;7258472;19;153594;-57
2022/11/02 06:29:50;;;;;;;;;;;;;;;20.58;58.19;101410.19;7259353;19;153834;-57
2022/11/02 06:32:17;;;;;;;;;;;;;;;20.63;58.21;101410.13;7260305;19;154037;-57
2022/11/02 06:34:44;;;;;;;;;;;;;;;20.68;58.29;101406.41;7259874;19;153416;-57
2022/11/02 06:37:10;;;;;;;;;;;;;;;20.72;58.19;101413.09;7260585;19;153916;-57
2022/11/02 06:39:37;;;;;;;;;;;;;;;20.77;58.59;101402.66;7259426;19;156177;-57
2022/11/02 06:42:04;;;;;;;;;;;;;;;20.84;58.34;101405.97;7259415;19;152845;-57
2022/11/02 06:44:31;;;;;;;;;;;;;;;20.88;58.10;101400.56;7257256;19;154473;-57
2022/11/02 06:46:58;;;;;;;;;;;;;;;20.94;58.33;101406.97;7265844;19;154077;-57
2022/11/02 06:49:24;;;;;;;;;;;;;;;20.99;58.14;101406.88;7261221;19;153837;-57
2022/11/02 06:51:51;;;;;;;;;;;;;;;21.03;58.00;101410.78;7257801;19;152730;-57
2022/11/02 06:54:18;;;;;;;;;;;;;;;21.08;57.86;101413.50;7262131;19;153280;-57
2022/11/02 06:56:45;;;;;;;;;;;;;;;21.13;57.56;101416.28;7254867;19;153402;-57
2022/11/02 06:59:12;;;;;;;;;;;;;;;21.16;57.77;101415.69;7255348;19;154001;-57
2022/11/02 07:01:38;;;;;;;;;;;;;;;21.20;57.52;101422.38;7259443;19;153719;-57
2022/11/02 07:04:06;;;;;;;;;;;;;;;21.25;57.56;101430.75;7259864;19;153982;-57
2022/11/02 07:06:33;;;;;;;;;;;;;;;21.27;57.37;101432.13;7262269;19;153330;-57
2022/11/02 07:09:00;;;;;;;;;;;;;;;21.31;57.65;101426.72;7260862;19;153934;-57
2022/11/02 07:11:27;;;;;;;;;;;;;;;21.34;57.14;101433.72;7255057;19;154252;-57
2022/11/02 07:13:54;;;;;;;;;;;;;;;21.37;57.43;101433.13;7258385;19;153244;-57
2022/11/02 07:16:21;;;;;;;;;;;;;;;21.40;56.99;101436.16;7258349;19;153695;-57
2022/11/02 07:18:48;;;;;;;;;;;;;;;21.43;57.22;101429.09;7254923;19;153891;-57
2022/11/02 07:21:15;;;;;;;;;;;;;;;21.46;56.44;101431.28;7261197;19;153774;-58
2022/11/02 07:23:42;;;;;;;;;;;;;;;21.48;56.34;101443.94;7258623;19;155152;-58
2022/11/02 07:26:08;;;;;;;;;;;;;;;21.35;52.13;101436.22;7255845;19;154634;-58
2022/11/02 07:28:37;;;;;;;;;;;;;;;21.33;52.18;101434.84;7264111;19;154154;-58
2022/11/02 07:31:04;;;;;;;;;;;;;;;21.34;52.09;101442.16;7254168;19;154653;-58
2022/11/02 07:33:31;;;;;;;;;;;;;;;21.34;51.68;101439.34;7258101;19;154107;-58
2022/11/02 07:35:58;;;;;;;;;;;;;;;21.36;51.73;101437.91;7255642;19;153791;-58
2022/11/02 07:38:25;;;;;;;;;;;;;;;21.36;51.87;101434.25;7256704;19;153268;-57
2022/11/02 07:40:52;;;;;;;;;;;;;;;21.38;51.79;101438.44;7256382;19;154400;-58
2022/11/02 07:43:18;;;;;;;;;;;;;;;21.39;51.73;101439.28;7256171;19;155210;-58
2022/11/02 07:45:45;;;;;;;;;;;;;;;21.39;51.65;101448.56;7255981;19;155617;-57
2022/11/02 07:48:12;;;;;;;;;;;;;;;21.36;51.36;101443.50;7257661;19;152699;-58
2022/11/02 07:50:39;;;;;;;;;;;;;;;21.35;51.60;101436.22;7264815;19;153765;-58
2022/11/02 07:53:07;;;;;;;;;;;;;;;21.35;51.01;101449.47;7259770;19;153886;-58
2022/11/02 07:55:34;;;;;;;;;;;;;;;21.33;50.91;101449.75;7258982;19;156003;-57
2022/11/02 07:58:02;;;;;;;;;;;;;;;21.33;51.38;101449.75;7255851;19;153566;-58
2022/11/02 08:00:31;;;;;;;;;;;;;;;21.30;51.11;101453.97;7258573;19;153087;-57
2022/11/02 08:02:59;;;;;;;;;;;;;;;21.30;51.29;101448.38;7255936;19;154098;-58
2022/11/02 08:05:27;;;;;;;;;;;;;;;21.28;51.15;101455.44;7255110;19;154217;-57
2022/11/02 08:07:57;;;;;;;;;;;;;;;21.28;51.19;101452.63;7241365;19;154271;-58
2022/11/02 08:10:24;;;;;;;;;;;;;;;21.27;51.16;101457.41;7245668;19;153118;-58
2022/11/02 08:12:51;;;;;;;;;;;;;;;21.26;51.02;101461.34;7260796;19;154259;-57
2022/11/02 08:15:19;;;;;;;;;;;;;;;21.27;51.35;101468.66;7249627;19;153744;-56
2022/11/02 08:17:46;;;;;;;;;;;;;;;21.33;52.07;101474.22;7253751;19;153833;-57
2022/11/02 08:20:13;;;;;;;;;;;;;;;21.33;52.22;101466.63;7253634;19;153317;-57
2022/11/02 08:22:40;;;;;;;;;;;;;;;21.33;51.82;101469.44;7257229;19;155263;-57
2022/11/02 08:25:08;;;;;;;;;;;;;;;21.34;52.00;101476.72;7249652;19;154927;-57
2022/11/02 08:27:35;;;;;;;;;;;;;;;21.35;51.78;101460.72;7252908;19;152301;-57
2022/11/02 08:30:03;;;;;;;;;;;;;;;21.35;51.62;101461.50;7254237;19;154370;-57
2022/11/02 08:32:30;;;;;;;;;;;;;;;21.36;51.99;101448.28;7250028;19;154001;-57
2022/11/02 08:34:57;;;;;;;;;;;;;;;21.37;51.77;101452.78;7261344;19;155759;-57
2022/11/02 08:37:24;;;;;;;;;;;;;;;21.38;51.59;101460.09;7256149;19;153365;-57
2022/11/02 08:39:52;;;;;;;;;;;;;;;21.39;51.52;101468.22;7253738;19;152151;-57
2022/11/02 08:42:19;;;;;;;;;;;;;;;21.40;51.57;101466.22;7256553;19;155694;-57
2022/11/02 08:44:46;;;;;;;;;;;;;;;21.41;51.79;101465.94;7253103;19;155226;-57
2022/11/02 08:47:14;;;;;;;;;;;;;;;21.43;51.39;101460.88;7254472;19;154266;-57
2022/11/02 08:49:42;;;;;;;;;;;;;;;21.43;51.54;101468.47;7255884;19;154545;-57
2022/11/02 08:52:09;;;;;;;;;;;;;;;21.44;51.19;101467.31;7254731;19;154019;-58
2022/11/02 08:54:36;;;;;;;;;;;;;;;21.46;51.45;101467.84;7257646;19;154039;-57
2022/11/02 08:57:03;;;;;;;;;;;;;;;21.45;51.20;101472.63;7260810;19;153438;-58
2022/11/02 08:59:31;;;;;;;;;;;;;;;21.45;51.23;101469.81;7255519;19;152688;-58
2022/11/02 09:01:58;;;;;;;;;;;;;;;21.45;50.80;101466.16;7255196;19;152715;-57
2022/11/02 09:04:25;;;;;;;;;;;;;;;21.45;50.79;101461.38;7255433;19;153978;-58
2022/11/02 09:06:53;;;;;;;;;;;;;;;21.45;50.65;101460.53;7254401;19;153135;-58
2022/11/02 09:09:20;;;;;;;;;;;;;;;21.44;50.79;101447.66;7257267;19;154256;-58
2022/11/02 09:11:48;;;;;;;;;;;;;;;21.45;50.74;101452.09;7252354;19;153957;-58
2022/11/02 09:14:16;;;;;;;;;;;;;;;21.44;50.47;101456.88;7252543;19;152973;-57
2022/11/02 09:16:43;;;;;;;;;;;;;;;21.43;50.33;101440.34;7262828;19;153258;-57
2022/11/02 09:19:10;;;;;;;;;;;;;;;21.45;50.91;101444.50;7253503;19;154701;-58
2022/11/02 09:21:37;;;;;;;;;;;;;;;21.42;49.89;101442.31;7256089;19;152841;-57
2022/11/02 09:24:05;;;;;;;;;;;;;;;21.42;49.84;101438.66;7253602;19;153321;-57
2022/11/02 09:26:32;;;;;;;;;;;;;;;21.41;49.83;101428.56;7254289;19;153848;-57
2022/11/02 09:28:59;;;;;;;;;;;;;;;21.41;50.39;101425.75;7254299;19;153308;-57
2022/11/02 09:31:28;;;;;;;;;;;;;;;21.40;50.33;101422.09;7251758;19;153628;-57
2022/11/02 09:33:56;;;;;;;;;;;;;;;21.41;49.89;101422.94;7256728;19;154289;-57
2022/11/02 09:36:23;;;;;;;;;;;;;;;21.40;50.38;101422.09;7256585;19;154474;-56
2022/11/02 09:38:50;;;;;;;;;;;;;;;21.40;50.11;101422.09;7261477;19;153558;-56
2022/11/02 09:41:19;;;;;;;;;;;;;;;21.40;49.83;101410.84;7254493;19;153295;-57
2022/11/02 09:43:52;;;;;;;;;;;;;;;21.40;49.96;101418.44;7251450;19;156543;-57
2022/11/02 09:46:24;;;;;;;;;;;;;;;21.40;49.14;101421.25;7252273;19;152772;-57
2022/11/02 09:48:55;;;;;;;;;;;;;;;21.37;49.27;101421.88;7253001;19;153793;-58
2022/11/02 09:51:26;;;;;;;;;;;;;;;21.36;49.62;101411.75;7253465;19;154260;-58
2022/11/02 09:54:01;;;;;;;;;;;;;;;21.35;49.57;101412.91;7255194;19;153834;-57
2022/11/02 09:56:29;;;;;;;;;;;;;;;21.35;49.25;101418.53;7252680;19;154956;-57
2022/11/02 09:58:59;;;;;;;;;;;;;;;21.34;49.24;101419.69;7250231;19;153500;-57
2022/11/02 10:01:32;;;;;;;;;;;;;;;21.32;48.98;101419.97;7261421;19;153478;-57
2022/11/02 10:04:09;;;;;;;;;;;;;;;21.32;49.53;101425.59;7253323;19;154107;-57
2022/11/02 10:06:40;;;;;;;;;;;;;;;21.32;49.23;101416.31;7253196;19;154439;-57
2022/11/02 10:09:19;;;;;;;;;;;;;;;21.31;49.06;101412.66;7254923;19;154105;-58
2022/11/02 10:11:49;;;;;;;;;;;;;;;21.30;49.18;101413.81;7250700;19;153340;-58
2022/11/02 10:14:20;;;;;;;;;;;;;;;21.28;49.34;101413.28;7254333;19;153115;-57
2022/11/02 10:16:52;;;;;;;;;;;;;;;21.27;49.04;101412.44;7253708;19;153468;-58
2022/11/02 10:19:20;;;;;;;;;;;;;;;21.27;49.04;101411.59;7253927;19;153833;-57
2022/11/02 10:21:56;;;;;;;;;;;;;;;21.28;49.55;101416.09;7251510;19;154273;-57
2022/11/02 10:24:25;;;;;;;;;;;;;;;21.26;48.94;101409.91;7258936;19;155081;-58
2022/11/02 10:26:58;;;;;;;;;;;;;;;21.25;49.11;101402.66;7252168;19;153426;-57
2022/11/02 10:29:34;;;;;;;;;;;;;;;21.25;49.36;101402.66;7250884;19;153817;-58
2022/11/02 10:32:02;;;;;;;;;;;;;;;21.22;49.21;101395.66;7251280;19;154103;-58
2022/11/02 10:34:29;;;;;;;;;;;;;;;21.22;49.16;101387.22;7253774;19;153852;-58
2022/11/02 10:36:57;;;;;;;;;;;;;;;21.21;49.30;101396.78;7254351;19;153518;-57
2022/11/02 10:39:32;;;;;;;;;;;;;;;21.20;48.98;101386.69;7253683;19;154205;-58
2022/11/02 10:42:10;;;;;;;;;;;;;;;21.20;49.26;101386.69;7249479;19;154275;-58
2022/11/02 10:44:40;;;;;;;;;;;;;;;21.17;49.58;101387.28;7252414;19;152757;-57
2022/11/02 10:47:14;;;;;;;;;;;;;;;21.20;49.48;101391.47;7259579;19;156352;-57
2022/11/02 10:49:50;;;;;;;;;;;;;;;21.18;49.18;101376.88;7250982;19;153726;-57
2022/11/02 10:52:17;;;;;;;;;;;;;;;21.16;49.20;101373.56;7250820;19;153579;-57
2022/11/02 10:54:48;;;;;;;;;;;;;;;21.16;49.27;101373.56;7253606;19;153150;-57
2022/11/02 10:57:19;;;;;;;;;;;;;;;21.15;49.63;101364.28;7258071;19;155432;-57
2022/11/02 11:00:06;;;;;;;;;;;;;;;21.12;49.83;101359.22;7257493;19;153872;-57
2022/11/02 11:02:33;;;;;;;;;;;;;;;21.11;49.43;101349.13;7257905;19;154172;-57
2022/11/02 11:05:11;;;;;;;;;;;;;;;21.09;49.72;101344.94;7257270;19;152887;-57
2022/11/02 11:07:43;;;;;;;;;;;;;;;21.10;49.67;101338.19;7256333;19;153859;-57
2022/11/02 11:10:14;;;;;;;;;;;;;;;21.07;49.48;101339.66;7268079;19;154126;-57
2022/11/02 11:12:42;;;;;;;;;;;;;;;21.07;49.61;101330.38;7255017;19;154804;-57
2022/11/02 11:15:19;;;;;;;;;;;;;;;21.07;49.70;101307.91;7260821;19;153380;-57
2022/11/02 11:18:11;;;;;;;;;;;;;;;21.06;49.99;101320.28;7261463;19;154970;-57
2022/11/02 11:20:59;;;;;;;;;;;;;;;21.05;50.24;101319.44;7257017;19;154420;-57
2022/11/02 11:23:26;;;;;;;;;;;;;;;21.03;50.05;101310.47;7257789;19;153199;-57
2022/11/02 11:25:55;;;;;;;;;;;;;;;21.03;49.86;101292.78;7257767;19;155781;-57
2022/11/02 11:28:27;;;;;;;;;;;;;;;21.01;49.51;101303.50;7252978;19;155544;-57
2022/11/02 11:31:01;;;;;;;;;;;;;;;21.00;50.28;101304.63;7267583;19;154347;-57
2022/11/02 11:33:29;;;;;;;;;;;;;;;20.97;49.90;101308.88;7257711;19;153816;-57
2022/11/02 11:35:57;;;;;;;;;;;;;;;20.98;49.64;101290.06;7259638;19;153438;-57
2022/11/02 11:38:26;;;;;;;;;;;;;;;20.94;50.04;101297.41;7258276;19;153479;-57
2022/11/02 11:40:55;;;;;;;;;;;;;;;20.93;50.10;101276.91;7256632;19;154193;-57
2022/11/02 11:43:25;;;;;;;;;;;;;;;20.92;50.19;101282.81;7256808;19;152300;-58
2022/11/02 11:45:54;;;;;;;;;;;;;;;20.91;49.88;101267.94;7257853;19;153538;-57
2022/11/02 11:48:29;;;;;;;;;;;;;;;20.90;50.08;101265.44;7257847;19;157647;-57
2022/11/02 11:50:57;;;;;;;;;;;;;;;20.87;50.06;101261.28;7259678;19;153621;-57
2022/11/02 11:53:25;;;;;;;;;;;;;;;20.86;50.00;101260.44;7266645;19;154084;-57
2022/11/02 11:55:54;;;;;;;;;;;;;;;20.84;50.01;101245.03;7260522;19;154176;-57
2022/11/02 11:58:22;;;;;;;;;;;;;;;20.82;50.06;101259.38;7252774;19;154408;-56
2022/11/02 12:01:06;;;;;;;;;;;;;;;20.82;50.18;101250.94;7251201;19;155976;-57
2022/11/02 12:03:45;;;;;;;;;;;;;;;20.81;50.55;101245.63;7255537;19;153411;-57
2022/11/02 12:06:19;;;;;;;;;;;;;;;20.79;50.52;101240.31;7256428;19;154079;-57
2022/11/02 12:09:00;;;;;;;;;;;;;;;20.77;50.43;101230.53;7257721;19;154034;-56
2022/11/02 12:11:38;;;;;;;;;;;;;;;20.75;50.46;101233.66;7256937;19;153952;-57
2022/11/02 12:14:12;;;;;;;;;;;;;;;20.74;50.57;101211.47;7255172;19;153620;-57
2022/11/02 12:16:39;;;;;;;;;;;;;;;20.73;50.94;101215.41;7261868;19;153779;-57
2022/11/02 12:19:16;;;;;;;;;;;;;;;20.73;50.80;101221.88;7257414;19;154897;-56
2022/11/02 12:21:52;;;;;;;;;;;;;;;20.68;50.68;101216.31;7257102;19;153098;-57
2022/11/02 12:24:19;;;;;;;;;;;;;;;20.69;50.80;101208.75;7258292;19;154036;-56
2022/11/02 12:27:03;;;;;;;;;;;;;;;20.65;50.55;101204.88;7253952;19;154100;-57
2022/11/02 12:29:40;;;;;;;;;;;;;;;20.62;50.59;101197.91;7255512;19;153299;-57
2022/11/02 12:32:12;;;;;;;;;;;;;;;20.62;50.49;101195.09;7258393;19;153801;-57
2022/11/02 12:34:49;;;;;;;;;;;;;;;20.59;50.97;101192.88;7255797;19;153516;-57
2022/11/02 12:37:44;;;;;;;;;;;;;;;20.57;50.55;101188.72;7257517;19;153846;-57
2022/11/02 12:40:24;;;;;;;;;;;;;;;20.55;50.93;101174.13;7264350;19;153712;-57
2022/11/02 12:43:21;;;;;;;;;;;;;;;20.56;50.86;101178.63;7252439;19;154019;-57
2022/11/02 12:45:54;;;;;;;;;;;;;;;20.54;50.69;101164.88;7254636;19;152270;-57
2022/11/02 12:48:24;;;;;;;;;;;;;;;20.51;51.17;101161.84;7255163;19;154653;-58
2022/11/02 12:51:01;;;;;;;;;;;;;;;20.50;50.61;101172.25;7254470;19;154185;-57